Aérodrome :
LOGIN :

S'inscrire | Disclaimer

   EN    FR    IT 

 










Légende :    VFR   VFR Marginal   IFR   IFR Intensif   IFR Très Intensif
Visi : 
Plafond : 
>= 8 km
>= 3000ft
5 à 8 km
1000 à 3000 ft
1500m à 5 km
500 à 1000 ft
800 à 1500m
200 à 500 ft
< 800m
< 200 ft
Symboles :   Orages  Brouillard  Fortes neiges  Fortes précipitations  Vent > 20 kt
SIGMETs :   Divers  Orages  Givrage  Turbulence  Onde Orograph.  Cendres Volcan.







- Altitude de l'aérodrome : 1411 ft
- Code IATA : GVA


LSGG - Genève Cointrin

DERNIER METAR :
  • 220550Z 25005KT 9999 FEW035 08/06 Q1021 NOSIG

METARs EXPIRÉS :
  • 220520Z 23006KT 9999 FEW035 08/06 Q1021 NOSIG
  • 220450Z 24007KT 9999 FEW035 BKN045 08/07 Q1021 NOSIG
  • 220420Z AUTO 24006KT 9999 FEW037 BKN041 10/07 Q1021 NOSIG
  • 220350Z AUTO 24005KT 9999 OVC036 08/07 Q1021 NOSIG
  • 220320Z AUTO 25003KT 9999 FEW036 BKN041 07/06 Q1021 NOSIG

TAF TAF LSGG
Valide du 22 à 06h jusqu'au 23 à 12h UTC


220525Z 2206/2312 23005KT 9999 BKN040 TX15/2215Z TN08/2206Z TN02/2306Z
BECMG 2208/2211 23012KT FEW050
BECMG 2218/2221 VRB03KT CAVOK
BECMG 2306/2309 23015KT
ATIS : +41 22 417 40 81
Pas de NOTAMs connus pour ce terrain.



MET'MAP, la Météo Aéronautique d'un coup d'oeil ! - Copyright ORBIFLY Décembre 2007 - Disclaimer

ORBIFLY MET'MAP TEAM :

Programmation & Développement : Alexandra Zaïnal
Conception & Développement : Baudouin d'Aumeries
Co-Programmation & Développement : Marc-Olivier Méhu
Soutien technique & logistique : Manuel Goepfert

Contact : metmap@orbifly.com




SOURCES & CREDITS :

   NOAA